LHA9169 LCLK-HECA
Flight info
| Callsign | LHA9169 |
|---|---|
| Flight time | 1h 0m |
| Altitude | 36000 |
| Route | EMEDA DCT LAKTO J863 PSD V602 CVO |
| Aircraft | B738/M-SDE1E2FGIJ1RWYZ/S |
Departure
| Time | 2026-05-05 14:29 |
|---|---|
| Airport | Larnaca International Airport (LCLK) |
Arrival
| Time | 2026-05-05 15:29 |
|---|---|
| Airport | Cairo International Airport (HECA) |
| Time | Latitude | Longitude | Altitude | Speed | Heading |
|---|---|---|---|---|---|
| 2026-05-05 14:02 | 34.87071 | 33.60991 | 18 ft | 0 kts | 225° |
| 2026-05-05 14:16 | 34.87081 | 33.61002 | 17 ft | 2 kts | 225° |
| 2026-05-05 14:16 | 34.87092 | 33.61017 | 17 ft | 2 kts | 225° |
| 2026-05-05 14:17 | 34.87104 | 33.61031 | 17 ft | 2 kts | 218° |
| 2026-05-05 14:17 | 34.87118 | 33.61040 | 17 ft | 2 kts | 164° |
| 2026-05-05 14:17 | 34.87127 | 33.61035 | 17 ft | 1 kts | 133° |
| 2026-05-05 14:17 | 34.87128 | 33.61034 | 17 ft | 0 kts | 132° |
| 2026-05-05 14:20 | 34.87127 | 33.61035 | 17 ft | 1 kts | 130° |
| 2026-05-05 14:20 | 34.87118 | 33.61057 | 17 ft | 6 kts | 114° |
| 2026-05-05 14:20 | 34.87095 | 33.61114 | 17 ft | 8 kts | 121° |
| 2026-05-05 14:21 | 34.87044 | 33.61185 | 17 ft | 12 kts | 134° |
| 2026-05-05 14:21 | 34.86986 | 33.61257 | 18 ft | 12 kts | 134° |
| 2026-05-05 14:21 | 34.86920 | 33.61339 | 18 ft | 14 kts | 134° |
| 2026-05-05 14:21 | 34.86901 | 33.61441 | 18 ft | 14 kts | 62° |
| 2026-05-05 14:22 | 34.86968 | 33.61534 | 17 ft | 16 kts | 45° |
| 2026-05-05 14:22 | 34.87054 | 33.61639 | 17 ft | 19 kts | 45° |
| 2026-05-05 14:22 | 34.87159 | 33.61768 | 17 ft | 23 kts | 45° |
| 2026-05-05 14:22 | 34.87283 | 33.61919 | 17 ft | 27 kts | 45° |
| 2026-05-05 14:23 | 34.87419 | 33.62090 | 17 ft | 29 kts | 46° |
| 2026-05-05 14:23 | 34.87563 | 33.62270 | 16 ft | 31 kts | 42° |
| 2026-05-05 14:23 | 34.87720 | 33.62452 | 16 ft | 31 kts | 45° |
| 2026-05-05 14:23 | 34.87865 | 33.62631 | 16 ft | 29 kts | 44° |
| 2026-05-05 14:24 | 34.87956 | 33.62747 | 16 ft | 14 kts | 60° |
| 2026-05-05 14:24 | 34.87925 | 33.62829 | 16 ft | 6 kts | 135° |
| 2026-05-05 14:24 | 34.87921 | 33.62833 | 16 ft | 0 kts | 135° |
| 2026-05-05 14:27 | 34.87921 | 33.62834 | 16 ft | 2 kts | 135° |
| 2026-05-05 14:27 | 34.87874 | 33.62891 | 17 ft | 15 kts | 135° |
| 2026-05-05 14:28 | 34.87783 | 33.62883 | 18 ft | 14 kts | 214° |
| 2026-05-05 14:28 | 34.87712 | 33.62802 | 17 ft | 16 kts | 225° |
| 2026-05-05 14:28 | 34.87519 | 33.62570 | 16 ft | 75 kts | 224° |
| 2026-05-05 14:28 | 34.86954 | 33.61888 | 21 ft | 150 kts | 225° |
| 2026-05-05 14:29 | 34.86102 | 33.60863 | 436 ft | 178 kts | 224° |
| 2026-05-05 14:29 | 34.85121 | 33.59937 | 1320 ft | 189 kts | 200° |
| 2026-05-05 14:29 | 34.83787 | 33.59832 | 2041 ft | 201 kts | 162° |
| 2026-05-05 14:29 | 34.82516 | 33.60588 | 2731 ft | 202 kts | 151° |
| 2026-05-05 14:30 | 34.81379 | 33.61563 | 3480 ft | 199 kts | 144° |
| 2026-05-05 14:30 | 34.80281 | 33.62594 | 4145 ft | 203 kts | 147° |
| 2026-05-05 14:30 | 34.79090 | 33.63596 | 4622 ft | 212 kts | 150° |
| 2026-05-05 14:30 | 34.77818 | 33.64554 | 5144 ft | 218 kts | 153° |
| 2026-05-05 14:31 | 34.76472 | 33.65474 | 5650 ft | 225 kts | 154° |
| 2026-05-05 14:31 | 34.75080 | 33.66353 | 6103 ft | 235 kts | 156° |
| 2026-05-05 14:31 | 34.73569 | 33.67249 | 6510 ft | 248 kts | 158° |
| 2026-05-05 14:31 | 34.71963 | 33.68158 | 6905 ft | 262 kts | 158° |
| 2026-05-05 14:32 | 34.70237 | 33.69097 | 7278 ft | 281 kts | 159° |
| 2026-05-05 14:32 | 34.68386 | 33.70077 | 7707 ft | 299 kts | 159° |
| 2026-05-05 14:32 | 34.66416 | 33.71100 | 8108 ft | 317 kts | 159° |
| 2026-05-05 14:32 | 34.64329 | 33.72170 | 8522 ft | 333 kts | 159° |
| 2026-05-05 14:33 | 34.62137 | 33.73286 | 8916 ft | 349 kts | 159° |
| 2026-05-05 14:33 | 34.59845 | 33.74447 | 9301 ft | 364 kts | 159° |
| 2026-05-05 14:33 | 34.57495 | 33.75635 | 9685 ft | 378 kts | 159° |
| 2026-05-05 14:33 | 34.55026 | 33.76879 | 10073 ft | 390 kts | 160° |
| 2026-05-05 14:34 | 34.52483 | 33.78154 | 10453 ft | 398 kts | 161° |
| 2026-05-05 14:34 | 34.49821 | 33.78906 | 10780 ft | 391 kts | 181° |
| 2026-05-05 14:34 | 34.47159 | 33.78475 | 11179 ft | 385 kts | 200° |
| 2026-05-05 14:34 | 34.44748 | 33.77149 | 11553 ft | 379 kts | 217° |
| 2026-05-05 14:35 | 34.42645 | 33.75241 | 11944 ft | 379 kts | 221° |
| 2026-05-05 14:35 | 34.40605 | 33.73275 | 12309 ft | 380 kts | 222° |
| 2026-05-05 14:35 | 34.38545 | 33.71266 | 12683 ft | 382 kts | 223° |
| 2026-05-05 14:35 | 34.36469 | 33.69243 | 13057 ft | 383 kts | 223° |
| 2026-05-05 14:36 | 34.34389 | 33.67228 | 13433 ft | 384 kts | 223° |
| 2026-05-05 14:36 | 34.32299 | 33.65217 | 13807 ft | 384 kts | 223° |
| 2026-05-05 14:36 | 34.30204 | 33.63210 | 14182 ft | 384 kts | 223° |
| 2026-05-05 14:36 | 34.28104 | 33.61204 | 14564 ft | 385 kts | 223° |
| 2026-05-05 14:37 | 34.25999 | 33.59199 | 14934 ft | 385 kts | 224° |
| 2026-05-05 14:37 | 34.23921 | 33.57223 | 15302 ft | 386 kts | 224° |
| 2026-05-05 14:37 | 34.21807 | 33.55215 | 15683 ft | 387 kts | 224° |
| 2026-05-05 14:37 | 34.19692 | 33.53207 | 16058 ft | 387 kts | 224° |
| 2026-05-05 14:38 | 34.17569 | 33.51194 | 16432 ft | 389 kts | 224° |
| 2026-05-05 14:38 | 34.15438 | 33.49175 | 16810 ft | 390 kts | 225° |
| 2026-05-05 14:38 | 34.13299 | 33.47148 | 17186 ft | 392 kts | 225° |
| 2026-05-05 14:38 | 34.11154 | 33.45117 | 17564 ft | 393 kts | 225° |
| 2026-05-05 14:39 | 34.08995 | 33.43074 | 17939 ft | 395 kts | 225° |
| 2026-05-05 14:39 | 34.06854 | 33.41050 | 18309 ft | 397 kts | 225° |
| 2026-05-05 14:39 | 34.04676 | 33.38991 | 18682 ft | 400 kts | 225° |
| 2026-05-05 14:39 | 34.02476 | 33.36913 | 19061 ft | 404 kts | 225° |
| 2026-05-05 14:40 | 34.00250 | 33.34811 | 19441 ft | 409 kts | 225° |
| 2026-05-05 14:40 | 33.97998 | 33.32688 | 19825 ft | 412 kts | 225° |
| 2026-05-05 14:40 | 33.95729 | 33.30550 | 20197 ft | 415 kts | 225° |
| 2026-05-05 14:40 | 33.93449 | 33.28404 | 20571 ft | 418 kts | 225° |
| 2026-05-05 14:41 | 33.91152 | 33.26245 | 20944 ft | 420 kts | 225° |
| 2026-05-05 14:41 | 33.88843 | 33.24076 | 21317 ft | 422 kts | 225° |
| 2026-05-05 14:41 | 33.86554 | 33.21927 | 21688 ft | 424 kts | 225° |
| 2026-05-05 14:41 | 33.84223 | 33.19739 | 22062 ft | 427 kts | 226° |
| 2026-05-05 14:42 | 33.81875 | 33.17537 | 22438 ft | 429 kts | 225° |
| 2026-05-05 14:42 | 33.79519 | 33.15329 | 22811 ft | 430 kts | 225° |
| 2026-05-05 14:42 | 33.77152 | 33.13112 | 23185 ft | 432 kts | 226° |
| 2026-05-05 14:42 | 33.74778 | 33.10891 | 23557 ft | 433 kts | 225° |
| 2026-05-05 14:43 | 33.72395 | 33.08663 | 23931 ft | 435 kts | 225° |
| 2026-05-05 14:43 | 33.70007 | 33.06430 | 24305 ft | 436 kts | 225° |
| 2026-05-05 14:43 | 33.67642 | 33.04223 | 24676 ft | 437 kts | 225° |
| 2026-05-05 14:43 | 33.65239 | 33.01980 | 25051 ft | 438 kts | 225° |
| 2026-05-05 14:44 | 33.62832 | 32.99736 | 25428 ft | 438 kts | 225° |
| 2026-05-05 14:44 | 33.60421 | 32.97490 | 25768 ft | 440 kts | 225° |
| 2026-05-05 14:44 | 33.58002 | 32.95238 | 26064 ft | 441 kts | 225° |
| 2026-05-05 14:44 | 33.55571 | 32.92976 | 26366 ft | 443 kts | 225° |
| 2026-05-05 14:45 | 33.53134 | 32.90709 | 26657 ft | 444 kts | 225° |
| 2026-05-05 14:45 | 33.50687 | 32.88435 | 26972 ft | 445 kts | 224° |
| 2026-05-05 14:45 | 33.48267 | 32.86189 | 27264 ft | 446 kts | 224° |
| 2026-05-05 14:45 | 33.45812 | 32.83911 | 27563 ft | 447 kts | 224° |
| 2026-05-05 14:46 | 33.43352 | 32.81630 | 27863 ft | 447 kts | 224° |
| 2026-05-05 14:46 | 33.40893 | 32.79353 | 28163 ft | 448 kts | 224° |
| 2026-05-05 14:46 | 33.38428 | 32.77072 | 28459 ft | 448 kts | 224° |
| 2026-05-05 14:46 | 33.35965 | 32.74795 | 28759 ft | 447 kts | 224° |
| 2026-05-05 14:47 | 33.33504 | 32.72520 | 29057 ft | 447 kts | 224° |
| 2026-05-05 14:47 | 33.31079 | 32.70280 | 29350 ft | 446 kts | 224° |
| 2026-05-05 14:47 | 33.28628 | 32.68018 | 29649 ft | 445 kts | 224° |
| 2026-05-05 14:47 | 33.26182 | 32.65763 | 29945 ft | 444 kts | 224° |
| 2026-05-05 14:48 | 33.23740 | 32.63513 | 30238 ft | 442 kts | 224° |
| 2026-05-05 14:48 | 33.21311 | 32.61275 | 30538 ft | 441 kts | 224° |
| 2026-05-05 14:48 | 33.18885 | 32.59044 | 30831 ft | 440 kts | 224° |
| 2026-05-05 14:48 | 33.16465 | 32.56817 | 31129 ft | 438 kts | 224° |
| 2026-05-05 14:49 | 33.14053 | 32.54601 | 31428 ft | 437 kts | 224° |
| 2026-05-05 14:49 | 33.11680 | 32.52421 | 31716 ft | 436 kts | 224° |
| 2026-05-05 14:49 | 33.09283 | 32.50220 | 32014 ft | 434 kts | 224° |
| 2026-05-05 14:49 | 33.06889 | 32.48025 | 32311 ft | 433 kts | 224° |
| 2026-05-05 14:50 | 33.04505 | 32.45840 | 32606 ft | 432 kts | 224° |
| 2026-05-05 14:50 | 33.02127 | 32.43662 | 32902 ft | 431 kts | 224° |
| 2026-05-05 14:50 | 32.99755 | 32.41490 | 33198 ft | 429 kts | 224° |
| 2026-05-05 14:50 | 32.97393 | 32.39331 | 33492 ft | 428 kts | 224° |
| 2026-05-05 14:51 | 32.95069 | 32.37206 | 33782 ft | 426 kts | 224° |
| 2026-05-05 14:51 | 32.92720 | 32.35060 | 34076 ft | 425 kts | 224° |
| 2026-05-05 14:51 | 32.90380 | 32.32925 | 34372 ft | 423 kts | 225° |
| 2026-05-05 14:51 | 32.88054 | 32.30804 | 34667 ft | 421 kts | 224° |
| 2026-05-05 14:52 | 32.85734 | 32.28689 | 34964 ft | 419 kts | 225° |
| 2026-05-05 14:52 | 32.83428 | 32.26588 | 35257 ft | 417 kts | 224° |
| 2026-05-05 14:52 | 32.81133 | 32.24498 | 35553 ft | 414 kts | 224° |
| 2026-05-05 14:52 | 32.78881 | 32.22450 | 35841 ft | 412 kts | 224° |
| 2026-05-05 14:53 | 32.76610 | 32.20384 | 36040 ft | 412 kts | 224° |
| 2026-05-05 14:53 | 32.74323 | 32.18302 | 36024 ft | 415 kts | 224° |
| 2026-05-05 14:53 | 32.69702 | 32.14103 | 36043 ft | 421 kts | 224° |
| 2026-05-05 14:54 | 32.64744 | 32.10254 | 36043 ft | 440 kts | 209° |
| 2026-05-05 14:54 | 32.61783 | 32.09179 | 36040 ft | 452 kts | 200° |
| 2026-05-05 14:54 | 32.58660 | 32.08755 | 36042 ft | 467 kts | 187° |
| 2026-05-05 14:55 | 32.52093 | 32.09441 | 36054 ft | 477 kts | 182° |
| 2026-05-05 14:55 | 32.45496 | 32.10346 | 36038 ft | 477 kts | 182° |
| 2026-05-05 14:56 | 32.38909 | 32.11165 | 36048 ft | 475 kts | 183° |
| 2026-05-05 14:56 | 32.32380 | 32.11918 | 36040 ft | 474 kts | 183° |
| 2026-05-05 14:57 | 32.25822 | 32.12665 | 36048 ft | 473 kts | 183° |
| 2026-05-05 14:57 | 32.19276 | 32.13414 | 36052 ft | 472 kts | 183° |
| 2026-05-05 14:58 | 32.12742 | 32.14163 | 36051 ft | 471 kts | 183° |
| 2026-05-05 14:58 | 32.06269 | 32.14904 | 36057 ft | 470 kts | 183° |
| 2026-05-05 14:59 | 31.99884 | 32.15632 | 36067 ft | 470 kts | 183° |
| 2026-05-05 14:59 | 31.93376 | 32.16373 | 36071 ft | 470 kts | 183° |
| 2026-05-05 15:00 | 31.87967 | 32.16989 | 36069 ft | 470 kts | 183° |
| 2026-05-05 15:00 | 31.80407 | 32.17849 | 36078 ft | 469 kts | 183° |
| 2026-05-05 15:01 | 31.73908 | 32.18586 | 36073 ft | 469 kts | 184° |
| 2026-05-05 15:01 | 31.67412 | 32.19322 | 36073 ft | 469 kts | 183° |
| 2026-05-05 15:02 | 31.60927 | 32.20056 | 36079 ft | 468 kts | 184° |
| 2026-05-05 15:02 | 31.54510 | 32.20781 | 36071 ft | 468 kts | 184° |
| 2026-05-05 15:03 | 31.48076 | 32.21507 | 35598 ft | 468 kts | 184° |
| 2026-05-05 15:03 | 31.44842 | 32.21873 | 35165 ft | 466 kts | 184° |
| 2026-05-05 15:03 | 31.41630 | 32.22237 | 34713 ft | 463 kts | 184° |
| 2026-05-05 15:04 | 31.38416 | 32.22597 | 34279 ft | 465 kts | 184° |
| 2026-05-05 15:04 | 31.35192 | 32.22958 | 33836 ft | 466 kts | 184° |
| 2026-05-05 15:04 | 31.31964 | 32.23320 | 33388 ft | 467 kts | 183° |
| 2026-05-05 15:04 | 31.28731 | 32.23683 | 32951 ft | 467 kts | 183° |
| 2026-05-05 15:05 | 31.22353 | 32.24149 | 32053 ft | 456 kts | 187° |
| 2026-05-05 15:05 | 31.19190 | 32.24272 | 31608 ft | 454 kts | 187° |
| 2026-05-05 15:05 | 31.16029 | 32.24378 | 31163 ft | 454 kts | 187° |
| 2026-05-05 15:06 | 31.12883 | 32.24491 | 30710 ft | 452 kts | 187° |
| 2026-05-05 15:06 | 31.09735 | 32.24613 | 30268 ft | 453 kts | 187° |
| 2026-05-05 15:06 | 31.06580 | 32.24743 | 29815 ft | 454 kts | 186° |
| 2026-05-05 15:06 | 31.03416 | 32.24881 | 29381 ft | 455 kts | 186° |
| 2026-05-05 15:07 | 31.00253 | 32.25023 | 28934 ft | 456 kts | 186° |
| 2026-05-05 15:07 | 30.97079 | 32.25167 | 28483 ft | 455 kts | 186° |
| 2026-05-05 15:07 | 30.93965 | 32.25310 | 28040 ft | 454 kts | 186° |
| 2026-05-05 15:07 | 30.90806 | 32.25453 | 27600 ft | 455 kts | 186° |
| 2026-05-05 15:08 | 30.87639 | 32.25595 | 27149 ft | 455 kts | 186° |
| 2026-05-05 15:08 | 30.84472 | 32.25737 | 26701 ft | 456 kts | 185° |
| 2026-05-05 15:08 | 30.81296 | 32.25879 | 26255 ft | 457 kts | 185° |
| 2026-05-05 15:08 | 30.78117 | 32.26021 | 25808 ft | 458 kts | 185° |
| 2026-05-05 15:09 | 30.74935 | 32.26164 | 25357 ft | 458 kts | 185° |
| 2026-05-05 15:09 | 30.71788 | 32.26305 | 24920 ft | 459 kts | 185° |
| 2026-05-05 15:09 | 30.68598 | 32.26449 | 24473 ft | 459 kts | 185° |
| 2026-05-05 15:09 | 30.65413 | 32.26573 | 24018 ft | 455 kts | 188° |
| 2026-05-05 15:10 | 30.62375 | 32.26009 | 23529 ft | 432 kts | 207° |
| 2026-05-05 15:10 | 30.59764 | 32.24500 | 23109 ft | 411 kts | 220° |
| 2026-05-05 15:10 | 30.57598 | 32.22436 | 22655 ft | 398 kts | 232° |
| 2026-05-05 15:10 | 30.55920 | 32.19946 | 22218 ft | 386 kts | 240° |
| 2026-05-05 15:11 | 30.54459 | 32.17412 | 21769 ft | 380 kts | 242° |
| 2026-05-05 15:11 | 30.53032 | 32.14863 | 21312 ft | 374 kts | 242° |
| 2026-05-05 15:11 | 30.51630 | 32.12348 | 20861 ft | 369 kts | 242° |
| 2026-05-05 15:11 | 30.50241 | 32.09872 | 20407 ft | 364 kts | 242° |
| 2026-05-05 15:12 | 30.48860 | 32.07426 | 19955 ft | 360 kts | 242° |
| 2026-05-05 15:12 | 30.47489 | 32.05014 | 19517 ft | 356 kts | 241° |
| 2026-05-05 15:12 | 30.46128 | 32.02632 | 19049 ft | 353 kts | 241° |
| 2026-05-05 15:12 | 30.44797 | 32.00308 | 18618 ft | 349 kts | 241° |
| 2026-05-05 15:13 | 30.43460 | 31.97977 | 18164 ft | 346 kts | 241° |
| 2026-05-05 15:13 | 30.42130 | 31.95661 | 17707 ft | 344 kts | 241° |
| 2026-05-05 15:13 | 30.40811 | 31.93367 | 17256 ft | 342 kts | 240° |
| 2026-05-05 15:13 | 30.39491 | 31.91072 | 16805 ft | 340 kts | 240° |
| 2026-05-05 15:14 | 30.38183 | 31.88800 | 16356 ft | 338 kts | 240° |
| 2026-05-05 15:14 | 30.36918 | 31.86604 | 15920 ft | 336 kts | 240° |
| 2026-05-05 15:14 | 30.35640 | 31.84387 | 15477 ft | 335 kts | 240° |
| 2026-05-05 15:14 | 30.34350 | 31.82151 | 15025 ft | 334 kts | 239° |
| 2026-05-05 15:15 | 30.33064 | 31.79923 | 14584 ft | 332 kts | 239° |
| 2026-05-05 15:15 | 30.31783 | 31.77703 | 14124 ft | 331 kts | 239° |
| 2026-05-05 15:15 | 30.30504 | 31.75490 | 13681 ft | 330 kts | 239° |
| 2026-05-05 15:15 | 30.29229 | 31.73284 | 13243 ft | 329 kts | 239° |
| 2026-05-05 15:16 | 30.27959 | 31.71087 | 12792 ft | 328 kts | 238° |
| 2026-05-05 15:16 | 30.26705 | 31.68921 | 12333 ft | 328 kts | 238° |
| 2026-05-05 15:16 | 30.25437 | 31.66732 | 11887 ft | 327 kts | 238° |
| 2026-05-05 15:16 | 30.24172 | 31.64549 | 11446 ft | 326 kts | 238° |
| 2026-05-05 15:17 | 30.22912 | 31.62376 | 11001 ft | 325 kts | 238° |
| 2026-05-05 15:17 | 30.21652 | 31.60202 | 10536 ft | 326 kts | 238° |
| 2026-05-05 15:17 | 30.20392 | 31.58030 | 10094 ft | 325 kts | 238° |
| 2026-05-05 15:17 | 30.19136 | 31.55867 | 9675 ft | 324 kts | 238° |
| 2026-05-05 15:18 | 30.17892 | 31.53727 | 9435 ft | 317 kts | 238° |
| 2026-05-05 15:18 | 30.16672 | 31.51630 | 9166 ft | 312 kts | 238° |
| 2026-05-05 15:18 | 30.15474 | 31.49571 | 8909 ft | 306 kts | 238° |
| 2026-05-05 15:18 | 30.14314 | 31.47575 | 8667 ft | 301 kts | 238° |
| 2026-05-05 15:19 | 30.13157 | 31.45585 | 8413 ft | 296 kts | 238° |
| 2026-05-05 15:19 | 30.12016 | 31.43625 | 8148 ft | 291 kts | 238° |
| 2026-05-05 15:19 | 30.10891 | 31.41696 | 7896 ft | 287 kts | 238° |
| 2026-05-05 15:19 | 30.09774 | 31.39799 | 7649 ft | 284 kts | 235° |
| 2026-05-05 15:20 | 30.08255 | 31.38348 | 7372 ft | 287 kts | 208° |
| 2026-05-05 15:20 | 30.06425 | 31.37466 | 7137 ft | 284 kts | 204° |
| 2026-05-05 15:20 | 30.04591 | 31.36628 | 6892 ft | 282 kts | 204° |
| 2026-05-05 15:20 | 30.02812 | 31.35815 | 6687 ft | 275 kts | 204° |
| 2026-05-05 15:21 | 30.01067 | 31.35010 | 6428 ft | 265 kts | 205° |
| 2026-05-05 15:21 | 29.99379 | 31.34223 | 6154 ft | 258 kts | 205° |
| 2026-05-05 15:21 | 29.97732 | 31.33453 | 5895 ft | 252 kts | 205° |
| 2026-05-05 15:21 | 29.96130 | 31.32705 | 5659 ft | 244 kts | 205° |
| 2026-05-05 15:22 | 29.94573 | 31.31975 | 5418 ft | 240 kts | 205° |
| 2026-05-05 15:22 | 29.93090 | 31.31181 | 5128 ft | 231 kts | 218° |
| 2026-05-05 15:22 | 29.91988 | 31.29921 | 4873 ft | 219 kts | 240° |
| 2026-05-05 15:22 | 29.91423 | 31.28379 | 4632 ft | 208 kts | 262° |
| 2026-05-05 15:23 | 29.91382 | 31.26756 | 4375 ft | 199 kts | 282° |
| 2026-05-05 15:23 | 29.91818 | 31.25276 | 4117 ft | 194 kts | 301° |
| 2026-05-05 15:23 | 29.92644 | 31.24068 | 3877 ft | 191 kts | 319° |
| 2026-05-05 15:23 | 29.93753 | 31.23250 | 3605 ft | 188 kts | 337° |
| 2026-05-05 15:24 | 29.95014 | 31.22913 | 3357 ft | 187 kts | 355° |
| 2026-05-05 15:24 | 29.96303 | 31.23084 | 3110 ft | 188 kts | 12° |
| 2026-05-05 15:24 | 29.97482 | 31.23710 | 2848 ft | 194 kts | 37° |
| 2026-05-05 15:24 | 29.98485 | 31.24778 | 2641 ft | 198 kts | 38° |
| 2026-05-05 15:25 | 29.99482 | 31.25866 | 2526 ft | 198 kts | 42° |
| 2026-05-05 15:25 | 30.00420 | 31.27039 | 2496 ft | 199 kts | 45° |
| 2026-05-05 15:25 | 30.01324 | 31.28238 | 2481 ft | 199 kts | 45° |
| 2026-05-05 15:25 | 30.02227 | 31.29447 | 2502 ft | 200 kts | 45° |
| 2026-05-05 15:26 | 30.03126 | 31.30652 | 2403 ft | 196 kts | 45° |
| 2026-05-05 15:26 | 30.04010 | 31.31841 | 2176 ft | 194 kts | 45° |
| 2026-05-05 15:26 | 30.04872 | 31.32995 | 1930 ft | 189 kts | 45° |
| 2026-05-05 15:26 | 30.05711 | 31.34121 | 1676 ft | 180 kts | 45° |
| 2026-05-05 15:27 | 30.06508 | 31.35189 | 1432 ft | 172 kts | 45° |
| 2026-05-05 15:27 | 30.07265 | 31.36202 | 1219 ft | 162 kts | 45° |
| 2026-05-05 15:27 | 30.07968 | 31.37145 | 1018 ft | 150 kts | 45° |
| 2026-05-05 15:27 | 30.08670 | 31.38014 | 827 ft | 147 kts | 39° |
| 2026-05-05 15:28 | 30.09425 | 31.38783 | 666 ft | 141 kts | 39° |
| 2026-05-05 15:28 | 30.10091 | 31.39574 | 493 ft | 136 kts | 44° |
| 2026-05-05 15:28 | 30.10724 | 31.40431 | 407 ft | 144 kts | 45° |
| 2026-05-05 15:28 | 30.11367 | 31.41274 | 369 ft | 134 kts | 47° |
| 2026-05-05 15:29 | 30.11771 | 31.41827 | 367 ft | 61 kts | 50° |
| 2026-05-05 15:29 | 30.11944 | 31.42063 | 367 ft | 30 kts | 54° |
| 2026-05-05 15:29 | 30.11989 | 31.42159 | 369 ft | 9 kts | 70° |
| 2026-05-05 15:29 | 30.12027 | 31.42170 | 367 ft | 8 kts | 294° |
| 2026-05-05 15:30 | 30.12000 | 31.42125 | 367 ft | 7 kts | 223° |
| 2026-05-05 15:30 | 30.11964 | 31.42088 | 367 ft | 7 kts | 222° |
| 2026-05-05 15:30 | 30.11931 | 31.42049 | 367 ft | 7 kts | 230° |
| 2026-05-05 15:30 | 30.11890 | 31.41993 | 367 ft | 14 kts | 230° |
| 2026-05-05 15:31 | 30.11808 | 31.41884 | 367 ft | 22 kts | 228° |
| 2026-05-05 15:31 | 30.11703 | 31.41744 | 368 ft | 23 kts | 230° |
| 2026-05-05 15:31 | 30.11634 | 31.41619 | 366 ft | 15 kts | 275° |
| 2026-05-05 15:31 | 30.11688 | 31.41534 | 360 ft | 14 kts | 275° |
| 2026-05-05 15:32 | 30.11667 | 31.41425 | 358 ft | 14 kts | 251° |
| 2026-05-05 15:32 | 30.11636 | 31.41321 | 355 ft | 13 kts | 251° |
| 2026-05-05 15:32 | 30.11595 | 31.41232 | 354 ft | 13 kts | 212° |
| 2026-05-05 15:32 | 30.11509 | 31.41232 | 359 ft | 13 kts | 175° |
| 2026-05-05 15:33 | 30.11428 | 31.41207 | 362 ft | 12 kts | 222° |
| 2026-05-05 15:33 | 30.11369 | 31.41131 | 362 ft | 13 kts | 228° |
| 2026-05-05 15:33 | 30.11308 | 31.41050 | 362 ft | 13 kts | 229° |
| 2026-05-05 15:33 | 30.11249 | 31.40972 | 363 ft | 13 kts | 229° |
| 2026-05-05 15:34 | 30.11192 | 31.40896 | 363 ft | 12 kts | 228° |
| 2026-05-05 15:34 | 30.11134 | 31.40824 | 363 ft | 13 kts | 227° |
| 2026-05-05 15:34 | 30.11065 | 31.40734 | 363 ft | 16 kts | 231° |
| 2026-05-05 15:34 | 30.11033 | 31.40623 | 361 ft | 16 kts | 302° |
| 2026-05-05 15:35 | 30.11124 | 31.40533 | 353 ft | 19 kts | 320° |
| 2026-05-05 15:35 | 30.11229 | 31.40428 | 344 ft | 21 kts | 318° |
| 2026-05-05 15:35 | 30.11263 | 31.40331 | 339 ft | 7 kts | 253° |
| 2026-05-05 15:35 | 30.11239 | 31.40306 | 340 ft | 0 kts | 200° |
| 2026-05-05 15:36 | 30.11226 | 31.40299 | 340 ft | 4 kts | 204° |
| 2026-05-05 15:36 | 30.11215 | 31.40295 | 341 ft | 0 kts | 196° |